createdAt,value
2018-12-22T00:01:42.973Z,84.85
2018-12-22T00:04:10.576Z,85.89
2018-12-22T00:06:38.187Z,86.74
2018-12-22T00:09:06.482Z,86.92
2018-12-22T00:11:34.181Z,87.81
2018-12-22T00:14:01.794Z,89.39
2018-12-22T00:16:30.338Z,89.48
2018-12-22T00:18:58.879Z,89.78
2018-12-22T00:21:26.497Z,90.11
2018-12-22T00:23:54.847Z,89.05
2018-12-22T00:26:24.549Z,89.07
2018-12-22T00:28:52.164Z,88.89
2018-12-22T00:31:20.242Z,88.43
2018-12-22T00:33:47.863Z,87.95
2018-12-22T00:36:15.534Z,87.60
2018-12-22T00:38:43.977Z,87.65
2018-12-22T00:41:12.435Z,87.94
2018-12-22T00:43:40.981Z,88.71
2018-12-22T00:46:08.635Z,88.52
2018-12-22T00:48:36.303Z,88.10
2018-12-22T00:51:03.916Z,89.31
2018-12-22T00:53:31.543Z,89.21
2018-12-22T00:55:59.954Z,88.63
2018-12-22T00:58:30.783Z,88.86
2018-12-22T01:00:57.249Z,89.12
2018-12-22T01:03:24.880Z,89.31
2018-12-22T01:05:52.521Z,89.32
2018-12-22T01:08:20.135Z,89.47
2018-12-22T01:10:47.844Z,88.96
2018-12-22T01:13:15.505Z,89.15
2018-12-22T01:15:44.004Z,88.91
2018-12-22T01:18:11.620Z,88.86
2018-12-22T01:20:39.822Z,88.44
2018-12-22T01:23:07.437Z,88.72
2018-12-22T01:25:35.067Z,88.96
2018-12-22T01:28:02.690Z,89.06
2018-12-22T01:30:31.327Z,88.36
2018-12-22T01:32:59.771Z,87.59
2018-12-22T01:35:27.394Z,88.14
2018-12-22T01:37:56.947Z,87.14
2018-12-22T01:40:25.421Z,87.94
2018-12-22T01:42:53.032Z,86.36
2018-12-22T01:45:20.660Z,87.44
2018-12-22T01:47:49.226Z,86.63
2018-12-22T01:50:16.840Z,86.53
2018-12-22T01:52:45.248Z,86.10
2018-12-22T01:55:13.615Z,86.37
2018-12-22T01:57:42.181Z,85.34
2018-12-22T02:00:10.629Z,85.81
2018-12-22T02:02:39.051Z,85.34
2018-12-22T02:05:07.609Z,84.70
2018-12-22T02:07:36.160Z,83.86
2018-12-22T02:10:05.759Z,84.32
2018-12-22T02:12:33.378Z,83.94
2018-12-22T02:15:01.988Z,85.32
2018-12-22T02:17:30.516Z,86.03
2018-12-22T02:19:59.017Z,87.86
2018-12-22T02:22:27.430Z,88.47
2018-12-22T02:24:57.137Z,89.58
2018-12-22T02:27:25.257Z,89.82
2018-12-22T02:29:52.921Z,90.78
2018-12-22T02:32:20.578Z,91.94
2018-12-22T02:34:49.126Z,92.82
2018-12-22T02:37:16.775Z,93.17
2018-12-22T02:39:44.388Z,93.84
2018-12-22T02:42:12.002Z,94.19
2018-12-22T02:44:39.665Z,94.62
2018-12-22T02:47:08.211Z,94.14
2018-12-22T02:49:35.836Z,94.32
2018-12-22T02:52:03.457Z,93.45
2018-12-22T02:54:32.058Z,93.00
2018-12-22T02:56:59.687Z,93.11
2018-12-22T02:59:27.324Z,91.97
2018-12-22T03:01:54.937Z,90.76
2018-12-22T03:04:24.425Z,89.65
2018-12-22T03:06:52.045Z,88.87
2018-12-22T03:09:20.604Z,89.47
2018-12-22T03:11:49.009Z,89.08
2018-12-22T03:14:17.600Z,88.76
2018-12-22T03:16:45.233Z,88.93
2018-12-22T03:19:13.810Z,87.90
2018-12-22T03:21:42.371Z,87.77
2018-12-22T03:24:10.833Z,86.47
2018-12-22T03:26:39.288Z,87.00
2018-12-22T03:29:15.284Z,85.40
2018-12-22T03:31:37.724Z,85.22
2018-12-22T03:34:06.303Z,84.36
2018-12-22T03:36:34.696Z,84.37
2018-12-22T03:39:02.317Z,83.23
2018-12-22T03:41:31.075Z,82.85
2018-12-22T03:43:59.543Z,82.22
2018-12-22T03:46:28.115Z,81.61
2018-12-22T03:48:57.025Z,82.13
2018-12-22T03:51:26.263Z,80.84
2018-12-22T03:53:53.877Z,79.42
2018-12-22T03:56:21.515Z,79.88
2018-12-22T03:58:49.135Z,79.50
2018-12-22T04:01:16.765Z,80.17
2018-12-22T04:03:44.385Z,79.73
2018-12-22T04:06:12.012Z,79.41
2018-12-22T04:08:39.628Z,79.35
2018-12-22T04:11:08.211Z,79.38
2018-12-22T04:13:35.825Z,77.85
2018-12-22T04:16:04.394Z,78.09
2018-12-22T04:18:32.012Z,77.36
2018-12-22T04:20:59.627Z,77.80
2018-12-22T04:23:28.164Z,76.76
2018-12-22T04:25:56.512Z,77.11
2018-12-22T04:28:24.968Z,77.05
2018-12-22T04:30:52.595Z,77.00
2018-12-22T04:33:21.141Z,76.62
2018-12-22T04:35:48.803Z,75.94
2018-12-22T04:38:16.424Z,76.34
2018-12-22T04:40:44.037Z,76.80
2018-12-22T04:43:12.689Z,75.79
2018-12-22T04:45:41.135Z,75.41
2018-12-22T04:48:09.777Z,75.98
2018-12-22T04:50:37.406Z,75.85
2018-12-22T04:53:05.025Z,75.31
2018-12-22T04:55:32.770Z,75.30
2018-12-22T04:58:01.191Z,75.98
2018-12-22T05:00:29.614Z,76.04
2018-12-22T05:02:57.243Z,76.22
2018-12-22T05:05:26.937Z,76.14
2018-12-22T05:07:55.550Z,76.96
2018-12-22T05:10:25.267Z,75.93
2018-12-22T05:12:53.912Z,75.79
2018-12-22T05:15:22.334Z,76.27
2018-12-22T05:17:50.871Z,76.42
2018-12-22T05:20:19.449Z,76.05
2018-12-22T05:22:48.011Z,76.75
2018-12-22T05:25:15.669Z,77.44
2018-12-22T05:27:43.290Z,76.82
2018-12-22T05:30:11.782Z,76.59
2018-12-22T05:32:40.205Z,77.13
2018-12-22T05:35:08.789Z,76.58
2018-12-22T05:37:36.455Z,77.45
2018-12-22T05:40:05.649Z,77.93
2018-12-22T05:42:33.268Z,77.61
2018-12-22T05:45:00.889Z,78.13
2018-12-22T05:47:28.511Z,77.95
2018-12-22T05:49:57.005Z,78.02
2018-12-22T05:52:25.145Z,78.82
2018-12-22T05:54:52.760Z,79.13
2018-12-22T05:57:21.225Z,79.39
2018-12-22T05:59:48.878Z,79.83
2018-12-22T06:02:17.463Z,80.65
2018-12-22T06:04:46.020Z,80.15
2018-12-22T06:07:14.583Z,81.01
2018-12-22T06:09:43.147Z,80.95
2018-12-22T06:12:11.679Z,80.80
2018-12-22T06:14:40.285Z,80.98
2018-12-22T06:17:07.942Z,80.64
2018-12-22T06:19:36.360Z,80.74
2018-12-22T06:22:04.783Z,80.92
2018-12-22T06:24:33.191Z,80.90
2018-12-22T06:27:00.809Z,80.86
2018-12-22T06:29:29.373Z,81.11
2018-12-22T06:31:57.837Z,81.46
2018-12-22T06:34:26.369Z,81.76
2018-12-22T06:36:54.723Z,81.62
2018-12-22T06:39:23.122Z,81.82
2018-12-22T06:41:51.709Z,81.31
2018-12-22T06:44:19.364Z,81.01
2018-12-22T06:46:47.772Z,81.22
2018-12-22T06:49:15.428Z,80.94
2018-12-22T06:51:43.869Z,81.18
2018-12-22T06:54:11.493Z,81.93
2018-12-22T06:56:39.903Z,80.93
2018-12-22T06:59:08.337Z,80.91
2018-12-22T07:01:36.763Z,81.18
2018-12-22T07:04:05.177Z,81.07
2018-12-22T07:06:32.795Z,81.07
2018-12-22T07:09:00.402Z,81.28
2018-12-22T07:11:28.001Z,81.21
2018-12-22T07:13:56.321Z,80.42
2018-12-22T07:16:24.725Z,80.48
2018-12-22T07:18:52.344Z,80.30
2018-12-22T07:21:19.979Z,80.23
2018-12-22T07:23:47.609Z,79.71
2018-12-22T07:26:15.289Z,80.22
2018-12-22T07:28:42.908Z,79.89
2018-12-22T07:31:10.525Z,80.13
2018-12-22T07:33:38.147Z,80.85
2018-12-22T07:36:05.782Z,80.38
2018-12-22T07:38:33.402Z,80.73
2018-12-22T07:41:01.012Z,81.81
2018-12-22T07:43:28.634Z,81.27
2018-12-22T07:45:57.170Z,81.57
2018-12-22T07:48:24.863Z,81.78
2018-12-22T07:50:52.490Z,81.89
2018-12-22T07:53:20.103Z,81.79
2018-12-22T07:55:47.729Z,81.79
2018-12-22T07:58:15.324Z,81.67
2018-12-22T08:00:42.938Z,81.83
2018-12-22T08:03:10.558Z,81.49
2018-12-22T08:05:39.011Z,81.46
2018-12-22T08:08:06.857Z,81.77
2018-12-22T08:10:34.503Z,80.99
2018-12-22T08:13:02.981Z,81.57
2018-12-22T08:15:30.610Z,81.43
2018-12-22T08:17:58.220Z,82.33
2018-12-22T08:20:26.578Z,82.07
2018-12-22T08:22:54.947Z,82.38
2018-12-22T08:25:22.652Z,82.32
2018-12-22T08:27:50.271Z,82.75
2018-12-22T08:30:17.964Z,82.65
2018-12-22T08:32:45.577Z,82.39
2018-12-22T08:35:13.196Z,82.36
2018-12-22T08:37:40.816Z,81.96
2018-12-22T08:40:10.187Z,81.79
2018-12-22T08:42:37.908Z,81.87
2018-12-22T08:45:06.994Z,81.62
2018-12-22T08:47:34.600Z,81.53
2018-12-22T08:50:08.932Z,81.38
2018-12-22T08:52:32.929Z,81.23
2018-12-22T08:55:00.551Z,81.14
2018-12-22T08:57:28.181Z,81.89
2018-12-22T08:59:56.763Z,81.68
2018-12-22T09:02:24.532Z,81.33
2018-12-22T09:04:52.159Z,81.44
2018-12-22T09:07:19.784Z,81.92
2018-12-22T09:09:47.410Z,81.75
2018-12-22T09:12:15.074Z,81.68
2018-12-22T09:14:43.640Z,81.84
2018-12-22T09:17:11.309Z,82.46
2018-12-22T09:19:38.951Z,81.41
2018-12-22T09:22:06.578Z,81.80
2018-12-22T09:24:34.207Z,81.35
2018-12-22T09:27:01.834Z,82.99
2018-12-22T09:29:29.455Z,82.85
2018-12-22T09:31:57.080Z,83.02
2018-12-22T09:34:25.270Z,83.03
2018-12-22T09:36:53.993Z,83.81
2018-12-22T09:39:21.664Z,83.19
2018-12-22T09:41:50.078Z,82.88
2018-12-22T09:44:17.707Z,82.60
2018-12-22T09:46:45.684Z,83.23
2018-12-22T09:49:13.314Z,83.29
2018-12-22T09:51:40.938Z,83.97
2018-12-22T09:54:08.558Z,84.59
2018-12-22T09:56:36.174Z,85.17
2018-12-22T09:59:03.808Z,85.19
2018-12-22T10:01:31.433Z,85.39
2018-12-22T10:03:59.047Z,85.59
2018-12-22T10:06:26.685Z,85.08
2018-12-22T10:08:55.053Z,85.15
2018-12-22T10:11:22.674Z,85.21
2018-12-22T10:13:50.317Z,85.03
2018-12-22T10:16:17.950Z,85.07
2018-12-22T10:18:45.750Z,84.80
2018-12-22T10:21:13.415Z,84.67
2018-12-22T10:23:41.046Z,84.36
2018-12-22T10:26:08.859Z,84.03
2018-12-22T10:28:36.529Z,83.52
2018-12-22T10:31:04.145Z,83.25
2018-12-22T10:33:32.550Z,83.89
2018-12-22T10:36:00.170Z,83.73
2018-12-22T10:38:27.798Z,83.35
2018-12-22T10:40:55.871Z,83.32
2018-12-22T10:43:25.197Z,83.21
2018-12-22T10:45:52.833Z,83.38
2018-12-22T10:48:20.461Z,83.62
2018-12-22T10:50:48.090Z,83.72
2018-12-22T10:53:16.501Z,84.10
2018-12-22T10:55:44.145Z,83.69
2018-12-22T10:58:11.785Z,83.63
2018-12-22T11:00:39.405Z,84.00
2018-12-22T11:03:07.249Z,83.53
2018-12-22T11:05:34.925Z,80.83
2018-12-22T11:08:02.621Z,79.79
2018-12-22T11:10:30.277Z,78.71
2018-12-22T11:12:58.039Z,78.52
2018-12-22T11:15:26.556Z,77.90
2018-12-22T11:17:55.103Z,77.57
2018-12-22T11:20:22.893Z,77.92
2018-12-22T11:22:50.518Z,77.78
2018-12-22T11:25:18.228Z,77.53
2018-12-22T11:27:45.846Z,77.93
2018-12-22T11:30:16.843Z,77.81
2018-12-22T11:32:44.546Z,77.47
2018-12-22T11:35:12.207Z,77.61
2018-12-22T11:37:39.837Z,77.30
2018-12-22T11:40:09.318Z,76.93
2018-12-22T11:42:37.016Z,76.59
2018-12-22T11:45:07.314Z,76.60
2018-12-22T11:47:38.198Z,76.46
2018-12-22T11:50:13.515Z,76.40
2018-12-22T11:52:41.139Z,76.52
2018-12-22T11:55:08.919Z,76.81
2018-12-22T11:57:36.533Z,75.99
2018-12-22T12:00:05.914Z,76.38
2018-12-22T12:02:33.539Z,76.49
2018-12-22T12:05:01.164Z,76.33
2018-12-22T12:07:29.579Z,75.01
2018-12-22T12:09:58.134Z,74.86
2018-12-22T12:12:26.688Z,74.78
2018-12-22T12:14:55.922Z,74.84
2018-12-22T12:17:28.308Z,74.20
2018-12-22T12:19:57.799Z,74.05
2018-12-22T12:22:26.329Z,74.12
2018-12-22T12:24:54.911Z,73.97
2018-12-22T12:27:22.528Z,73.84
2018-12-22T12:29:50.968Z,73.79
2018-12-22T12:32:18.581Z,73.41
2018-12-22T12:34:46.192Z,72.89
2018-12-22T12:37:13.809Z,73.09
2018-12-22T12:39:42.344Z,73.81
2018-12-22T12:42:10.122Z,74.44
2018-12-22T12:44:39.723Z,74.48
2018-12-22T12:47:08.287Z,75.10
2018-12-22T12:49:36.841Z,75.51
2018-12-22T12:52:06.229Z,76.14
2018-12-22T12:54:34.767Z,76.65
2018-12-22T12:57:03.260Z,77.10
2018-12-22T12:59:31.921Z,76.84
2018-12-22T13:02:01.323Z,76.96
2018-12-22T13:04:30.180Z,76.51
2018-12-22T13:06:57.928Z,76.87
2018-12-22T13:09:26.655Z,76.07
2018-12-22T13:11:56.129Z,76.30
2018-12-22T13:14:23.815Z,76.61
2018-12-22T13:16:51.434Z,76.29
2018-12-22T13:19:20.001Z,75.87
2018-12-22T13:21:48.465Z,76.09
2018-12-22T13:24:16.167Z,75.78
2018-12-22T13:26:46.675Z,74.06
2018-12-22T13:29:15.253Z,74.28
2018-12-22T13:31:42.923Z,74.30
2018-12-22T13:34:10.546Z,74.10
2018-12-22T13:36:39.186Z,74.42
2018-12-22T13:39:07.821Z,74.98
2018-12-22T13:41:36.861Z,74.47
2018-12-22T13:44:05.483Z,75.10
2018-12-22T13:46:33.893Z,74.76
2018-12-22T13:49:01.785Z,75.49
2018-12-22T13:51:29.498Z,75.97
2018-12-22T13:53:57.188Z,76.11
2018-12-22T13:56:25.367Z,76.47
2018-12-22T13:58:53.060Z,76.61
2018-12-22T14:01:20.671Z,76.85
2018-12-22T14:03:49.067Z,76.50
2018-12-22T14:06:16.685Z,77.05
2018-12-22T14:08:44.344Z,77.58
2018-12-22T14:11:11.988Z,77.41
2018-12-22T14:13:40.641Z,77.31
2018-12-22T14:16:10.180Z,78.24
2018-12-22T14:18:41.489Z,79.51
2018-12-22T14:21:09.376Z,77.09
2018-12-22T14:23:49.566Z,77.19
2018-12-22T14:26:17.224Z,77.67
2018-12-22T14:28:45.646Z,77.53
2018-12-22T14:31:13.260Z,77.28
2018-12-22T14:33:41.342Z,78.10
2018-12-22T14:36:09.479Z,77.04
2018-12-22T14:38:37.102Z,76.88
2018-12-22T14:41:04.714Z,77.32
2018-12-22T14:43:33.142Z,77.37
2018-12-22T14:46:01.718Z,77.73
2018-12-22T14:48:29.331Z,77.87
2018-12-22T14:50:56.985Z,78.58
2018-12-22T14:53:26.417Z,77.93
2018-12-22T14:55:55.432Z,77.95
2018-12-22T14:58:24.701Z,80.27
2018-12-22T15:00:53.153Z,78.26
2018-12-22T15:03:21.694Z,78.36
2018-12-22T15:05:50.202Z,78.12
2018-12-22T15:08:17.823Z,77.80
2018-12-22T15:10:45.558Z,78.36
2018-12-22T15:13:13.198Z,79.15
2018-12-22T15:15:40.810Z,79.59
2018-12-22T15:18:08.426Z,79.51
2018-12-22T15:20:36.048Z,79.81
2018-12-22T15:23:05.230Z,80.03
2018-12-22T15:25:32.853Z,79.74
2018-12-22T15:28:00.471Z,80.36
2018-12-22T15:30:28.096Z,79.49
2018-12-22T15:32:56.492Z,79.31
2018-12-22T15:35:24.833Z,80.14
2018-12-22T15:37:52.450Z,80.41
2018-12-22T15:40:20.112Z,79.71
2018-12-22T15:42:48.531Z,80.22
2018-12-22T15:45:17.393Z,79.42
2018-12-22T15:47:46.017Z,80.95
2018-12-22T15:50:17.744Z,80.22
2018-12-22T15:52:46.272Z,80.16
2018-12-22T15:55:13.984Z,80.59
2018-12-22T15:57:42.424Z,84.31
2018-12-22T16:00:12.866Z,79.59
2018-12-22T16:02:40.522Z,79.68
2018-12-22T16:05:10.939Z,79.38
2018-12-22T16:07:42.322Z,79.51
2018-12-22T16:10:13.346Z,79.11
2018-12-22T16:12:40.958Z,79.26
2018-12-22T16:15:11.776Z,80.30
2018-12-22T16:17:39.403Z,80.55
2018-12-22T16:20:10.485Z,80.62
2018-12-22T16:22:39.267Z,81.09
2018-12-22T16:25:11.550Z,79.85
2018-12-22T16:27:40.927Z,79.77
2018-12-22T16:30:20.765Z,79.51
2018-12-22T16:32:48.399Z,79.65
2018-12-22T16:35:16.018Z,80.04
2018-12-22T16:37:43.652Z,80.55
2018-12-22T16:40:12.944Z,79.91
2018-12-22T16:42:40.950Z,80.04
2018-12-22T16:45:14.846Z,80.07
2018-12-22T16:47:43.623Z,79.54
2018-12-22T16:50:13.913Z,80.05
2018-12-22T16:52:41.537Z,80.79
2018-12-22T16:55:15.052Z,80.94
2018-12-22T16:57:58.477Z,80.92
2018-12-22T17:00:33.954Z,80.77
2018-12-22T17:03:10.403Z,80.44
2018-12-22T17:05:31.403Z,79.88
2018-12-22T17:07:59.024Z,80.38
2018-12-22T17:10:27.215Z,80.89
2018-12-22T17:12:55.844Z,80.45
2018-12-22T17:15:24.798Z,80.23
2018-12-22T17:17:52.532Z,81.01
2018-12-22T17:20:20.161Z,81.58
2018-12-22T17:23:00.579Z,81.65
2018-12-22T17:25:28.952Z,81.07
2018-12-22T17:27:56.605Z,81.21
2018-12-22T17:30:25.003Z,81.20
2018-12-22T17:32:52.733Z,81.78
2018-12-22T17:35:20.414Z,81.31
2018-12-22T17:37:49.290Z,81.07
2018-12-22T17:40:16.984Z,81.60
2018-12-22T17:42:45.580Z,81.32
2018-12-22T17:45:14.232Z,81.00
2018-12-22T17:47:41.843Z,81.91
2018-12-22T17:50:10.126Z,83.14
2018-12-22T17:52:37.778Z,83.34
2018-12-22T17:55:08.796Z,81.86
2018-12-22T17:57:36.422Z,81.95
2018-12-22T18:00:12.141Z,81.96
2018-12-22T18:02:42.137Z,82.00
2018-12-22T18:05:09.767Z,81.19
2018-12-22T18:07:37.446Z,82.15
2018-12-22T18:10:13.668Z,82.75
2018-12-22T18:12:41.326Z,82.26
2018-12-22T18:15:23.426Z,82.71
2018-12-22T18:17:51.112Z,83.42
2018-12-22T18:20:18.728Z,84.19
2018-12-22T18:22:46.393Z,85.05
2018-12-22T18:25:19.275Z,86.20
2018-12-22T18:27:49.188Z,87.27
2018-12-22T18:30:18.111Z,86.96
2018-12-22T18:32:46.516Z,86.84
2018-12-22T18:35:15.097Z,87.48
2018-12-22T18:37:42.724Z,87.94
2018-12-22T18:40:14.693Z,88.93
2018-12-22T18:42:42.893Z,89.27
2018-12-22T18:45:11.813Z,89.09
2018-12-22T18:47:40.608Z,89.67
2018-12-22T18:50:14.932Z,90.41
2018-12-22T18:52:42.584Z,90.68
2018-12-22T18:55:10.292Z,91.00
2018-12-22T18:57:38.309Z,90.58
2018-12-22T19:00:11.762Z,91.12
2018-12-22T19:02:39.544Z,91.21
2018-12-22T19:05:08.443Z,90.79
2018-12-22T19:07:36.062Z,90.13
2018-12-22T19:10:07.477Z,89.86
2018-12-22T19:12:35.102Z,90.65
2018-12-22T19:15:02.711Z,91.08
2018-12-22T19:17:30.334Z,90.09
2018-12-22T19:19:57.945Z,89.75
2018-12-22T19:22:26.120Z,90.68
2018-12-22T19:24:53.883Z,90.78
2018-12-22T19:27:21.511Z,90.52
2018-12-22T19:29:50.105Z,90.90
2018-12-22T19:32:18.603Z,90.82
2018-12-22T19:34:46.221Z,90.79
2018-12-22T19:37:13.847Z,91.50
2018-12-22T19:39:41.501Z,91.62
2018-12-22T19:42:09.141Z,91.90
2018-12-22T19:44:36.775Z,93.07
2018-12-22T19:47:04.410Z,93.97
2018-12-22T19:49:32.036Z,94.37
2018-12-22T19:51:59.659Z,94.75
2018-12-22T19:54:27.284Z,95.01
2018-12-22T19:56:55.031Z,95.64
2018-12-22T19:59:24.600Z,95.27
2018-12-22T20:01:52.249Z,95.57
2018-12-22T20:04:19.859Z,95.61
2018-12-22T20:06:47.498Z,95.75
2018-12-22T20:09:15.118Z,95.99
2018-12-22T20:11:42.735Z,95.70
2018-12-22T20:14:10.356Z,95.93
2018-12-22T20:16:37.988Z,96.07
2018-12-22T20:19:05.629Z,96.26
2018-12-22T20:21:33.263Z,96.79
2018-12-22T20:24:00.892Z,96.79
2018-12-22T20:26:28.505Z,96.40
2018-12-22T20:28:56.179Z,95.40
2018-12-22T20:31:23.900Z,94.55
2018-12-22T20:33:51.551Z,94.89
2018-12-22T20:36:19.173Z,94.62
2018-12-22T20:38:46.793Z,94.39
2018-12-22T20:41:14.435Z,94.79
2018-12-22T20:43:42.044Z,95.01
2018-12-22T20:46:09.666Z,94.74
2018-12-22T20:48:37.757Z,93.95
2018-12-22T20:51:05.373Z,92.97
2018-12-22T20:53:33.012Z,93.67
2018-12-22T20:56:00.624Z,93.38
2018-12-22T20:58:28.279Z,93.80
2018-12-22T21:00:56.338Z,94.27
2018-12-22T21:03:41.854Z,94.62
2018-12-22T21:06:15.381Z,95.36
2018-12-22T21:08:43.006Z,96.03
2018-12-22T21:11:11.686Z,96.35
2018-12-22T21:13:39.322Z,95.98
2018-12-22T21:16:06.952Z,95.47
2018-12-22T21:18:35.564Z,95.01
2018-12-22T21:21:04.098Z,94.93
2018-12-22T21:23:31.727Z,94.66
2018-12-22T21:26:00.252Z,94.43
2018-12-22T21:28:27.885Z,94.46
2018-12-22T21:30:56.472Z,94.82
2018-12-22T21:33:25.038Z,94.81
2018-12-22T21:35:54.607Z,94.50
2018-12-22T21:38:22.259Z,94.84
2018-12-22T21:40:50.165Z,95.24
2018-12-22T21:43:18.027Z,94.48
2018-12-22T21:45:45.646Z,93.21
2018-12-22T21:48:14.231Z,93.58
2018-12-22T21:50:41.848Z,92.97
2018-12-22T21:53:10.270Z,92.62
2018-12-22T21:55:37.933Z,92.70
2018-12-22T21:58:06.521Z,92.94
2018-12-22T22:00:34.159Z,93.53
2018-12-22T22:03:02.691Z,93.37
2018-12-22T22:05:30.323Z,93.44
2018-12-22T22:07:58.759Z,94.00
2018-12-22T22:10:27.326Z,94.19
2018-12-22T22:12:54.998Z,94.31
2018-12-22T22:15:22.609Z,95.03
2018-12-22T22:17:50.231Z,95.24
2018-12-22T22:20:17.930Z,95.04
2018-12-22T22:22:45.543Z,94.23
2018-12-22T22:25:13.182Z,94.00
2018-12-22T22:27:40.804Z,93.44
2018-12-22T22:30:09.261Z,92.54
2018-12-22T22:32:36.875Z,92.51
2018-12-22T22:35:04.668Z,92.63
2018-12-22T22:37:32.284Z,93.26
2018-12-22T22:40:00.753Z,94.26
2018-12-22T22:42:28.379Z,94.53
2018-12-22T22:44:56.011Z,94.62
2018-12-22T22:47:23.955Z,94.58
2018-12-22T22:49:52.378Z,94.80
2018-12-22T22:52:19.999Z,95.42
2018-12-22T22:54:48.414Z,95.93
2018-12-22T22:57:16.953Z,96.42
2018-12-22T22:59:44.583Z,97.23
2018-12-22T23:02:13.024Z,97.27
2018-12-22T23:04:40.823Z,97.07
2018-12-22T23:07:08.488Z,96.38
2018-12-22T23:09:36.972Z,96.38
2018-12-22T23:12:04.595Z,96.10
2018-12-22T23:14:32.407Z,96.13
2018-12-22T23:17:00.220Z,96.64
2018-12-22T23:19:28.026Z,96.60
2018-12-22T23:21:56.660Z,97.03
2018-12-22T23:24:25.164Z,97.24
2018-12-22T23:26:53.790Z,97.74
2018-12-22T23:29:22.284Z,98.12
2018-12-22T23:31:50.074Z,98.25
2018-12-22T23:34:17.872Z,98.21
2018-12-22T23:36:45.775Z,97.88
2018-12-22T23:39:14.438Z,96.39
2018-12-22T23:41:42.087Z,94.77
2018-12-22T23:44:10.798Z,93.85
2018-12-22T23:46:38.476Z,93.75
2018-12-22T23:49:06.194Z,93.71
2018-12-22T23:51:34.801Z,93.94
2018-12-22T23:54:03.111Z,93.68
2018-12-22T23:56:31.818Z,93.43
2018-12-22T23:58:59.610Z,93.07
